Time;durP1;ratioP1;P1;durP2;ratioP2;P2;SDS_P1;SDS_P2;PMS_P1;PMS_P2;Temp;Humidity;BMP_temperature;BMP_pressure;BME280_temperature;BME280_humidity;BME280_pressure;Samples;Min_cycle;Max_cycle;Signal;HPM_P1;HPM_P2
2022/10/23 00:01:37;;;;;;;11.00;5.43;;;14.80;99.90;;;;;;5073101;28;20208;-85
2022/10/23 00:04:07;;;;;;;13.43;5.37;;;14.80;99.90;;;;;;5074091;28;20216;-85
2022/10/23 00:06:40;;;;;;;8.10;5.03;;;14.80;99.90;;;;;;5074329;28;20206;-84
2022/10/23 00:09:09;;;;;;;13.50;5.90;;;14.90;99.90;;;;;;5074309;28;20223;-84
2022/10/23 00:11:37;;;;;;;12.87;5.60;;;14.90;99.90;;;;;;5074119;28;20246;-84
2022/10/23 00:14:08;;;;;;;9.17;5.10;;;14.90;99.90;;;;;;5074423;28;20280;-84
2022/10/23 00:16:37;;;;;;;16.10;5.50;;;14.90;99.90;;;;;;5074005;28;20230;-85
2022/10/23 00:19:07;;;;;;;9.17;5.13;;;15.00;99.90;;;;;;5074341;28;20198;-85
2022/10/23 00:21:35;;;;;;;12.23;5.00;;;15.00;99.90;;;;;;5074337;28;20212;-84
2022/10/23 00:24:02;;;;;;;18.13;5.73;;;15.10;99.90;;;;;;5073945;28;20202;-84
2022/10/23 00:26:31;;;;;;;14.63;5.57;;;15.10;99.90;;;;;;5073801;28;20256;-84
2022/10/23 00:29:01;;;;;;;14.33;5.37;;;15.10;99.90;;;;;;5073759;28;20229;-84
2022/10/23 00:31:28;;;;;;;9.87;5.00;;;15.10;99.90;;;;;;5074282;28;20572;-84
2022/10/23 00:33:56;;;;;;;12.73;5.27;;;15.10;99.90;;;;;;5083167;28;20195;-84
2022/10/23 00:36:23;;;;;;;13.30;5.60;;;15.00;99.90;;;;;;5094134;28;20766;-84
2022/10/23 00:38:52;;;;;;;9.77;5.27;;;15.00;99.90;;;;;;5094108;28;20229;-84
2022/10/23 00:41:22;;;;;;;5.47;4.50;;;15.00;99.90;;;;;;5094122;28;20206;-84
2022/10/23 00:44:05;;;;;;;15.90;5.67;;;15.00;99.90;;;;;;5093929;28;20191;-84
2022/10/23 00:46:35;;;;;;;14.93;5.20;;;15.00;99.90;;;;;;5093948;28;20219;-84
2022/10/23 00:49:05;;;;;;;13.53;5.17;;;15.10;99.90;;;;;;5093506;28;20226;-84
2022/10/23 00:51:40;;;;;;;9.33;4.73;;;15.10;99.90;;;;;;5093579;28;20199;-84
2022/10/23 00:54:09;;;;;;;11.00;5.37;;;15.10;99.90;;;;;;5094000;28;20202;-84
2022/10/23 00:56:40;;;;;;;13.17;5.80;;;15.10;99.90;;;;;;5093649;28;20210;-85
2022/10/23 00:59:13;;;;;;;12.37;5.33;;;15.10;99.90;;;;;;5093620;28;20202;-83
2022/10/23 01:01:40;;;;;;;8.33;4.77;;;15.10;99.90;;;;;;5093905;28;20570;-84
2022/10/23 01:04:15;;;;;;;8.90;4.47;;;15.10;99.90;;;;;;5093630;28;20210;-84
2022/10/23 01:06:49;;;;;;;8.80;4.70;;;15.10;99.90;;;;;;5094020;28;20561;-85
2022/10/23 01:09:24;;;;;;;10.27;4.37;;;15.10;99.90;;;;;;5093881;28;20230;-84
2022/10/23 01:11:57;;;;;;;11.23;4.67;;;15.20;99.90;;;;;;5093665;28;20201;-84
2022/10/23 01:14:31;;;;;;;8.80;4.53;;;15.20;99.90;;;;;;5093225;28;20230;-84
2022/10/23 01:17:05;;;;;;;11.20;4.40;;;15.10;99.90;;;;;;5093558;28;20190;-85
2022/10/23 01:19:47;;;;;;;8.07;4.73;;;15.10;99.90;;;;;;5093797;28;20190;-85
2022/10/23 01:22:36;;;;;;;7.47;4.60;;;15.10;99.90;;;;;;5093958;28;20199;-85
2022/10/23 01:25:15;;;;;;;6.77;4.13;;;15.10;99.90;;;;;;5093519;28;20206;-85
2022/10/23 01:27:49;;;;;;;7.57;4.13;;;15.10;99.90;;;;;;5093605;28;20205;-85
2022/10/23 01:30:17;;;;;;;8.00;4.37;;;15.20;99.90;;;;;;5093357;28;20226;-85
2022/10/23 01:32:48;;;;;;;13.97;4.83;;;15.20;99.90;;;;;;5093718;28;20205;-84
2022/10/23 01:35:20;;;;;;;12.20;5.57;;;15.20;99.90;;;;;;5092262;28;20445;-84
2022/10/23 01:37:53;;;;;;;8.03;4.33;;;15.40;99.90;;;;;;5093602;28;20202;-84
2022/10/23 01:40:29;;;;;;;7.80;4.60;;;15.40;99.90;;;;;;5093110;28;20202;-84
2022/10/23 01:43:01;;;;;;;14.33;4.63;;;15.40;99.90;;;;;;5093436;28;20251;-84
2022/10/23 01:45:37;;;;;;;11.03;4.40;;;15.40;99.90;;;;;;5093306;28;20202;-84
2022/10/23 01:48:08;;;;;;;8.63;4.50;;;15.30;99.90;;;;;;5096628;28;20235;-85
2022/10/23 01:50:38;;;;;;;6.20;4.47;;;15.40;99.90;;;;;;5097651;28;20206;-85
2022/10/23 01:53:06;;;;;;;9.87;4.23;;;15.30;99.90;;;;;;5097235;28;20222;-85
2022/10/23 01:55:33;;;;;;;6.70;4.37;;;15.30;99.90;;;;;;5096699;28;20572;-83
2022/10/23 01:58:03;;;;;;;9.50;4.90;;;15.40;99.90;;;;;;5097052;28;20203;-85
2022/10/23 02:00:31;;;;;;;12.03;4.70;;;15.40;99.90;;;;;;5097019;28;20198;-85
2022/10/23 02:02:58;;;;;;;5.33;4.23;;;15.40;99.90;;;;;;5096828;28;20214;-84
2022/10/23 02:05:28;;;;;;;13.20;4.37;;;15.30;99.90;;;;;;5097270;28;20192;-85
2022/10/23 02:07:55;;;;;;;5.93;4.17;;;15.30;99.90;;;;;;5096828;28;20203;-85
2022/10/23 02:10:24;;;;;;;10.07;4.60;;;15.20;99.90;;;;;;5096661;28;20618;-85
2022/10/23 02:12:59;;;;;;;9.80;4.93;;;15.10;99.90;;;;;;5096896;28;20227;-85
2022/10/23 02:15:30;;;;;;;12.20;4.73;;;15.10;99.90;;;;;;5096970;28;20192;-85
2022/10/23 02:18:08;;;;;;;13.97;4.70;;;15.10;99.90;;;;;;5096709;28;20220;-85
2022/10/23 02:20:39;;;;;;;12.57;4.20;;;15.10;99.90;;;;;;5096571;28;20248;-84
2022/10/23 02:23:15;;;;;;;11.73;4.67;;;15.10;99.90;;;;;;5096411;28;20620;-84
2022/10/23 02:25:48;;;;;;;7.37;4.23;;;15.20;99.90;;;;;;5096336;28;20200;-85
2022/10/23 02:28:22;;;;;;;12.07;4.13;;;15.20;99.90;;;;;;5096566;28;20202;-85
2022/10/23 02:30:50;;;;;;;9.80;4.70;;;15.20;99.90;;;;;;5096807;28;20191;-85
2022/10/23 02:33:19;;;;;;;11.20;4.75;;;15.20;99.90;;;;;;5095842;28;20434;-85
2022/10/23 02:35:48;;;;;;;11.07;4.90;;;15.20;99.90;;;;;;5094815;28;20203;-85
2022/10/23 02:38:31;;;;;;;9.80;4.23;;;15.10;99.90;;;;;;5096357;28;20210;-84
2022/10/23 02:41:15;;;;;;;10.03;3.87;;;15.10;99.90;;;;;;5095943;28;20693;-85
2022/10/23 02:43:54;;;;;;;11.00;4.67;;;15.20;99.90;;;;;;5096666;28;20186;-85
2022/10/23 02:46:28;;;;;;;8.47;4.30;;;15.20;99.90;;;;;;5096435;28;20202;-85
2022/10/23 02:49:01;;;;;;;12.87;3.73;;;15.20;99.90;;;;;;5095960;28;20226;-84
2022/10/23 02:51:42;;;;;;;10.67;4.20;;;15.30;99.90;;;;;;5096363;28;20194;-85
2022/10/23 02:54:20;;;;;;;7.63;3.67;;;15.30;99.90;;;;;;5096013;28;20196;-85
2022/10/23 02:56:54;;;;;;;11.07;4.47;;;15.40;99.90;;;;;;5095446;28;20225;-84
2022/10/23 02:59:29;;;;;;;9.67;4.07;;;15.40;99.90;;;;;;5096161;28;20681;-86
2022/10/23 03:02:05;;;;;;;7.70;4.03;;;15.40;99.90;;;;;;5096075;28;20215;-84
2022/10/23 03:04:33;;;;;;;11.33;4.23;;;15.40;99.90;;;;;;5094677;28;20209;-85
2022/10/23 03:07:00;;;;;;;8.67;3.90;;;15.30;99.90;;;;;;5095590;28;20222;-85
2022/10/23 03:09:33;;;;;;;9.10;3.80;;;15.30;99.90;;;;;;5095372;28;20223;-84
2022/10/23 03:12:00;;;;;;;11.03;3.87;;;15.40;99.90;;;;;;5095524;28;20204;-84
2022/10/23 03:14:26;;;;;;;9.40;3.87;;;15.30;99.90;;;;;;5095964;28;20227;-85
2022/10/23 03:16:56;;;;;;;8.20;3.53;;;15.30;99.90;;;;;;5095920;28;20563;-85
2022/10/23 03:19:24;;;;;;;6.23;3.67;;;15.40;99.90;;;;;;5095359;28;20217;-84
2022/10/23 03:21:51;;;;;;;9.07;4.00;;;15.40;99.90;;;;;;5095347;28;20670;-84
2022/10/23 03:24:18;;;;;;;13.63;3.90;;;15.40;99.90;;;;;;5095344;28;20187;-84
2022/10/23 03:26:45;;;;;;;8.70;3.60;;;15.40;99.90;;;;;;5095497;28;20214;-84
2022/10/23 03:29:13;;;;;;;9.63;3.43;;;15.30;99.90;;;;;;5095111;28;20218;-85
2022/10/23 03:31:43;;;;;;;7.83;3.50;;;15.30;99.90;;;;;;5095433;28;20195;-84
2022/10/23 03:34:10;;;;;;;7.00;3.37;;;15.20;99.90;;;;;;5095744;28;20205;-85
2022/10/23 03:36:42;;;;;;;11.20;3.40;;;15.30;99.90;;;;;;5095065;28;20664;-85
2022/10/23 03:39:10;;;;;;;9.07;3.87;;;15.30;99.90;;;;;;5094297;28;20204;-83
2022/10/23 03:41:37;;;;;;;7.80;3.33;;;15.30;99.90;;;;;;5094960;28;20207;-85
2022/10/23 03:44:05;;;;;;;4.87;2.97;;;15.30;99.90;;;;;;5094879;28;20653;-85
2022/10/23 03:46:33;;;;;;;9.73;3.43;;;15.30;99.90;;;;;;5095037;28;20188;-84
2022/10/23 03:49:00;;;;;;;6.93;3.30;;;15.30;99.90;;;;;;5094926;28;20189;-85
2022/10/23 03:51:29;;;;;;;7.37;3.60;;;15.30;99.90;;;;;;5095275;28;20192;-85
2022/10/23 03:54:01;;;;;;;4.77;2.60;;;15.30;99.90;;;;;;5095236;28;20203;-85
2022/10/23 03:56:30;;;;;;;7.93;3.17;;;15.40;99.90;;;;;;5095357;28;20208;-85
2022/10/23 03:59:06;;;;;;;6.50;3.20;;;15.40;99.90;;;;;;5096738;28;20187;-85
2022/10/23 04:01:45;;;;;;;3.63;2.53;;;15.40;99.90;;;;;;5097031;28;20209;-85
2022/10/23 04:04:13;;;;;;;4.90;2.80;;;15.40;99.90;;;;;;5096476;28;20215;-85
2022/10/23 04:06:46;;;;;;;13.57;3.00;;;15.40;99.90;;;;;;5096595;28;20631;-84
2022/10/23 04:09:25;;;;;;;6.33;2.90;;;15.30;99.90;;;;;;5096894;28;20212;-85
2022/10/23 04:11:56;;;;;;;7.53;3.03;;;15.30;99.90;;;;;;5097620;28;20196;-85
2022/10/23 04:14:28;;;;;;;10.77;2.93;;;15.30;99.90;;;;;;5097453;28;20719;-85
2022/10/23 04:16:55;;;;;;;5.77;2.80;;;15.40;99.90;;;;;;5094746;28;20208;-85
2022/10/23 04:19:22;;;;;;;8.83;3.47;;;15.30;99.90;;;;;;5094390;28;20212;-85
2022/10/23 04:21:49;;;;;;;7.60;3.13;;;15.40;99.90;;;;;;5094151;28;20207;-85
2022/10/23 04:24:16;;;;;;;10.80;3.00;;;15.40;99.90;;;;;;5094081;28;20647;-84
2022/10/23 04:26:44;;;;;;;5.43;2.87;;;15.50;99.90;;;;;;5094317;28;20200;-85
2022/10/23 04:29:11;;;;;;;4.20;2.43;;;15.50;99.90;;;;;;5093969;28;20219;-85
2022/10/23 04:31:41;;;;;;;8.17;3.03;;;15.40;99.90;;;;;;5096993;28;20190;-85
2022/10/23 04:34:26;;;;;;;7.43;2.83;;;15.40;99.90;;;;;;5098104;28;20209;-85
2022/10/23 04:37:08;;;;;;;6.37;2.40;;;15.40;99.90;;;;;;5097406;28;20191;-85
2022/10/23 04:39:48;;;;;;;4.87;2.50;;;15.40;99.90;;;;;;5097036;28;20204;-85
2022/10/23 04:42:22;;;;;;;8.80;3.17;;;15.30;99.90;;;;;;5098317;28;20353;-85
2022/10/23 04:44:48;;;;;;;8.83;2.30;;;15.30;99.90;;;;;;5096351;28;20204;-85
2022/10/23 04:47:24;;;;;;;5.60;2.70;;;15.30;99.90;;;;;;5097838;28;20212;-85
2022/10/23 04:49:51;;;;;;;6.50;3.07;;;15.40;99.90;;;;;;5095900;28;20278;-85
2022/10/23 04:52:21;;;;;;;5.10;2.90;;;15.40;99.90;;;;;;5097639;28;20202;-85
2022/10/23 04:55:27;;;;;;;6.97;2.97;;;15.50;99.90;;;;;;5096799;28;20189;-85
2022/10/23 04:57:59;;;;;;;5.00;2.53;;;15.40;99.90;;;;;;5096311;28;20210;-85
2022/10/23 05:00:32;;;;;;;7.00;2.70;;;15.40;99.90;;;;;;5097022;28;20218;-85
2022/10/23 05:02:58;;;;;;;7.97;3.22;;;15.30;99.90;;;;;;5092648;28;20898;-84
2022/10/23 05:05:25;;;;;;;4.27;2.53;;;15.50;99.90;;;;;;5093488;28;20210;-83
2022/10/23 05:07:52;;;;;;;5.00;2.60;;;15.50;99.90;;;;;;5093765;28;20564;-84
2022/10/23 05:10:19;;;;;;;6.67;2.77;;;15.50;99.90;;;;;;5093502;28;20220;-84
2022/10/23 05:12:46;;;;;;;3.80;2.40;;;15.50;99.90;;;;;;5093802;28;20224;-84
2022/10/23 05:15:18;;;;;;;6.87;2.50;;;15.50;99.90;;;;;;5093332;28;20201;-84
2022/10/23 05:17:49;;;;;;;4.93;2.60;;;15.50;99.90;;;;;;5097228;28;20191;-84
2022/10/23 05:20:21;;;;;;;3.80;2.57;;;15.50;99.90;;;;;;5098734;28;20212;-84
2022/10/23 05:22:50;;;;;;;6.70;2.50;;;15.60;99.90;;;;;;5102154;28;20199;-83
2022/10/23 05:25:17;;;;;;;5.33;2.53;;;15.60;99.90;;;;;;5102218;28;20196;-84
2022/10/23 05:27:44;;;;;;;3.80;2.33;;;15.50;99.90;;;;;;5102042;28;20206;-84
2022/10/23 05:30:12;;;;;;;4.13;2.10;;;15.50;99.90;;;;;;5101665;28;20235;-84
2022/10/23 05:32:41;;;;;;;5.23;2.63;;;15.50;99.90;;;;;;5100690;28;20648;-84
2022/10/23 05:35:21;;;;;;;5.87;2.63;;;15.40;99.90;;;;;;5100267;28;20210;-85
2022/10/23 05:37:50;;;;;;;6.33;2.63;;;15.50;99.90;;;;;;5101997;28;20209;-84
2022/10/23 05:40:17;;;;;;;8.87;2.50;;;15.60;99.90;;;;;;5101843;28;20188;-84
2022/10/23 05:42:44;;;;;;;6.07;2.27;;;15.60;99.90;;;;;;5106178;28;20204;-83
2022/10/23 05:45:11;;;;;;;7.07;2.50;;;15.50;99.90;;;;;;5103176;28;20189;-84
2022/10/23 05:47:43;;;;;;;8.17;2.50;;;15.60;99.90;;;;;;5107220;28;20197;-84
2022/10/23 05:50:16;;;;;;;8.33;2.37;;;15.70;99.90;;;;;;5114654;28;20303;-84
2022/10/23 05:52:48;;;;;;;6.13;2.57;;;15.70;99.90;;;;;;5116673;28;20203;-83
2022/10/23 05:55:18;;;;;;;9.23;2.60;;;15.70;99.90;;;;;;5118443;28;20193;-82
2022/10/23 05:57:51;;;;;;;5.90;2.33;;;15.70;99.90;;;;;;5118160;28;20200;-83
2022/10/23 06:00:18;;;;;;;6.23;2.97;;;15.70;99.90;;;;;;5116864;28;20193;-84
2022/10/23 06:02:48;;;;;;;3.33;2.07;;;15.60;99.90;;;;;;5114166;28;20193;-84
2022/10/23 06:05:15;;;;;;;4.03;2.30;;;15.70;99.90;;;;;;5117565;28;20215;-84
2022/10/23 06:07:51;;;;;;;5.00;2.17;;;15.70;99.90;;;;;;5116419;28;20197;-83
2022/10/23 06:10:18;;;;;;;4.30;2.00;;;15.60;99.90;;;;;;5117845;28;20210;-85
2022/10/23 06:12:47;;;;;;;5.53;2.50;;;15.60;99.90;;;;;;5118097;28;20235;-83
2022/10/23 06:15:13;;;;;;;4.00;2.27;;;15.50;99.90;;;;;;5118458;28;20219;-83
2022/10/23 06:17:42;;;;;;;4.63;2.10;;;15.50;99.90;;;;;;5103875;28;20212;-84
2022/10/23 06:20:12;;;;;;;5.93;2.30;;;15.50;99.90;;;;;;5096629;28;20214;-84
2022/10/23 06:22:39;;;;;;;2.47;2.07;;;15.40;99.90;;;;;;5096659;28;20641;-84
2022/10/23 06:25:07;;;;;;;2.13;1.93;;;15.40;99.90;;;;;;5096109;28;20207;-83
2022/10/23 06:27:37;;;;;;;3.70;2.30;;;15.20;99.90;;;;;;5095495;28;20547;-84
2022/10/23 06:30:10;;;;;;;4.70;2.00;;;15.20;99.90;;;;;;5096296;28;20224;-84
2022/10/23 06:32:37;;;;;;;5.13;2.33;;;15.30;99.90;;;;;;5104851;28;20235;-83
2022/10/23 06:35:05;;;;;;;3.87;2.30;;;15.30;99.90;;;;;;5114919;28;20677;-83
2022/10/23 06:37:35;;;;;;;3.60;1.80;;;15.40;99.90;;;;;;5116774;28;20204;-83
2022/10/23 06:40:07;;;;;;;4.20;1.93;;;15.50;99.90;;;;;;5114399;28;20205;-82
2022/10/23 06:42:40;;;;;;;4.57;2.27;;;15.40;99.90;;;;;;5114251;28;20227;-84
2022/10/23 06:45:07;;;;;;;2.70;1.87;;;15.50;99.90;;;;;;5113391;28;20242;-83
2022/10/23 06:47:37;;;;;;;3.53;2.00;;;15.50;99.90;;;;;;5111129;28;20204;-84
2022/10/23 06:50:05;;;;;;;4.63;2.10;;;15.60;99.90;;;;;;5109877;28;20237;-84
2022/10/23 06:52:35;;;;;;;3.73;2.17;;;15.50;99.90;;;;;;5113444;28;20208;-84
2022/10/23 06:55:05;;;;;;;3.33;2.07;;;15.50;99.90;;;;;;5112953;28;20197;-83
2022/10/23 06:57:35;;;;;;;7.10;2.20;;;15.60;99.90;;;;;;5113179;28;20569;-84
2022/10/23 07:00:02;;;;;;;5.03;2.37;;;15.60;99.90;;;;;;5108988;28;20212;-84
2022/10/23 07:02:30;;;;;;;3.97;2.37;;;15.60;99.90;;;;;;5097221;28;20205;-83
2022/10/23 07:04:57;;;;;;;5.17;2.53;;;15.70;99.90;;;;;;5094583;28;20446;-84
2022/10/23 07:07:25;;;;;;;5.97;2.40;;;15.70;99.90;;;;;;5090039;28;20427;-84
2022/10/23 07:09:53;;;;;;;2.93;2.10;;;15.80;99.90;;;;;;5092264;28;20198;-82
2022/10/23 07:12:23;;;;;;;4.03;1.80;;;15.70;99.90;;;;;;5094739;28;20188;-83
2022/10/23 07:14:51;;;;;;;4.87;2.13;;;15.80;99.90;;;;;;5096170;28;20208;-84
2022/10/23 07:17:18;;;;;;;3.30;2.00;;;15.90;99.90;;;;;;5096273;28;20337;-84
2022/10/23 07:19:47;;;;;;;2.27;2.00;;;16.00;99.90;;;;;;5093839;28;20276;-85
2022/10/23 07:22:14;;;;;;;4.53;1.90;;;15.90;99.90;;;;;;5083500;28;20212;-83
2022/10/23 07:24:41;;;;;;;3.37;2.13;;;16.00;99.90;;;;;;5094874;28;20208;-85
2022/10/23 07:27:09;;;;;;;9.10;2.20;;;16.00;99.90;;;;;;5086031;28;20201;-84
2022/10/23 07:29:38;;;;;;;6.23;2.20;;;16.00;99.90;;;;;;5078124;28;20660;-84
2022/10/23 07:32:06;;;;;;;4.80;2.00;;;15.90;99.90;;;;;;5076863;28;20247;-85
2022/10/23 07:34:33;;;;;;;4.33;2.30;;;15.90;99.90;;;;;;5091611;28;20656;-83
2022/10/23 07:36:59;;;;;;;7.50;2.40;;;16.00;99.90;;;;;;5095455;28;20271;-82
2022/10/23 07:39:26;;;;;;;3.07;2.00;;;16.20;99.90;;;;;;5078419;28;20209;-81
2022/10/23 07:41:53;;;;;;;4.47;2.10;;;16.20;99.90;;;;;;5095624;28;20216;-83
2022/10/23 07:44:27;;;;;;;3.57;1.77;;;16.30;99.90;;;;;;5095277;28;20223;-84
2022/10/23 07:46:54;;;;;;;5.10;1.90;;;16.30;99.90;;;;;;5096769;28;20194;-85
2022/10/23 07:49:23;;;;;;;5.80;2.13;;;16.30;99.90;;;;;;5091842;28;20218;-80
2022/10/23 07:51:51;;;;;;;2.33;2.13;;;16.20;99.90;;;;;;5100573;28;20224;-85
2022/10/23 07:54:18;;;;;;;4.43;2.20;;;16.30;99.90;;;;;;5098919;28;20738;-83
2022/10/23 07:56:46;;;;;;;3.07;1.97;;;16.10;99.90;;;;;;5097660;28;20209;-83
2022/10/23 07:59:13;;;;;;;5.53;2.43;;;16.30;99.90;;;;;;5085533;28;20199;-84
2022/10/23 08:01:42;;;;;;;4.67;2.03;;;16.40;99.90;;;;;;5081828;28;20205;-84
2022/10/23 08:04:10;;;;;;;7.57;2.20;;;16.50;99.90;;;;;;5078417;28;20311;-83
2022/10/23 08:06:37;;;;;;;5.25;2.25;;;16.50;99.90;;;;;;5093476;28;20464;-84
2022/10/23 08:09:04;;;;;;;5.27;2.43;;;16.50;99.90;;;;;;5089202;28;20206;-84
2022/10/23 08:11:34;;;;;;;5.30;2.27;;;16.40;99.90;;;;;;5089691;28;20235;-85
2022/10/23 08:14:03;;;;;;;6.43;2.33;;;16.40;99.90;;;;;;5093941;28;20584;-85
2022/10/23 08:16:31;;;;;;;6.37;2.20;;;16.50;99.90;;;;;;5087887;28;20279;-85
2022/10/23 08:19:00;;;;;;;4.90;2.63;;;16.50;99.90;;;;;;5074767;28;20210;-85
2022/10/23 08:21:29;;;;;;;5.20;2.37;;;16.40;99.90;;;;;;5088653;28;20198;-85
2022/10/23 08:23:56;;;;;;;3.30;2.20;;;16.40;99.90;;;;;;5097005;28;20216;-85
2022/10/23 08:26:24;;;;;;;4.13;2.43;;;16.40;99.90;;;;;;5094465;28;20230;-85
2022/10/23 08:28:51;;;;;;;5.20;2.43;;;16.30;99.90;;;;;;5078711;28;20210;-85
2022/10/23 08:31:20;;;;;;;4.63;2.10;;;16.40;99.90;;;;;;5086471;28;20232;-85
2022/10/23 08:33:47;;;;;;;6.20;2.53;;;16.40;99.90;;;;;;5087079;28;20206;-87
2022/10/23 08:36:18;;;;;;;3.77;2.47;;;16.40;99.90;;;;;;5082884;28;20206;-83
2022/10/23 08:38:45;;;;;;;5.07;2.63;;;16.60;99.90;;;;;;5073659;28;20617;-83
2022/10/23 08:41:23;;;;;;;5.50;2.70;;;16.50;99.90;;;;;;5090168;28;20199;-81
2022/10/23 08:43:57;;;;;;;5.30;2.43;;;16.60;99.90;;;;;;5080072;28;20208;-83
2022/10/23 08:46:29;;;;;;;5.30;2.27;;;16.60;99.90;;;;;;5076791;28;20186;-82
2022/10/23 08:49:07;;;;;;;6.10;2.50;;;16.60;99.90;;;;;;5085548;28;20175;-85
2022/10/23 08:51:41;;;;;;;7.80;2.77;;;16.70;99.90;;;;;;5105861;28;20234;-84
2022/10/23 08:54:14;;;;;;;2.33;2.10;;;16.70;99.90;;;;;;5096254;28;20589;-82
2022/10/23 08:56:43;;;;;;;5.63;2.83;;;16.70;99.90;;;;;;5096776;28;20198;-84
2022/10/23 08:59:19;;;;;;;6.97;2.87;;;16.90;99.90;;;;;;5090499;28;20202;-85
2022/10/23 09:01:50;;;;;;;5.80;2.50;;;16.90;99.90;;;;;;5094684;28;20241;-85
2022/10/23 09:04:18;;;;;;;7.43;2.90;;;16.90;99.90;;;;;;5093977;28;20670;-85
2022/10/23 09:06:54;;;;;;;3.90;2.53;;;17.00;99.90;;;;;;5092094;28;20234;-83
2022/10/23 09:09:41;;;;;;;7.77;2.67;;;17.10;99.90;;;;;;5093193;28;20207;-84
2022/10/23 09:12:11;;;;;;;2.47;2.27;;;17.10;99.90;;;;;;5078371;28;20228;-84
2022/10/23 09:15:02;;;;;;;4.63;2.80;;;17.10;99.90;;;;;;5074046;28;20211;-84
2022/10/23 09:17:30;;;;;;;4.10;2.37;;;17.10;99.90;;;;;;5072984;28;20208;-84
2022/10/23 09:20:05;;;;;;;3.90;2.67;;;17.20;99.90;;;;;;5077714;28;20208;-85
2022/10/23 09:22:36;;;;;;;7.33;2.30;;;17.20;99.90;;;;;;5085740;28;20242;-85
2022/10/23 09:25:08;;;;;;;7.07;2.97;;;17.20;99.90;;;;;;5093236;28;20211;-83
2022/10/23 09:27:36;;;;;;;3.73;2.13;;;17.20;99.90;;;;;;5094520;28;20337;-84
2022/10/23 09:30:03;;;;;;;4.70;2.57;;;17.40;99.90;;;;;;5093941;28;20196;-83
2022/10/23 09:32:35;;;;;;;3.50;2.17;;;17.50;99.90;;;;;;5093614;28;20216;-85
2022/10/23 09:35:22;;;;;;;8.55;3.00;;;17.60;99.90;;;;;;5093267;28;20913;-85
2022/10/23 09:37:52;;;;;;;4.47;2.50;;;17.70;99.90;;;;;;5092302;28;20230;-83
2022/10/23 09:40:29;;;;;;;5.23;2.47;;;17.80;99.90;;;;;;5092891;28;20582;-84
2022/10/23 09:42:59;;;;;;;7.40;3.17;;;17.60;99.90;;;;;;5093354;28;20200;-84
2022/10/23 09:45:29;;;;;;;5.73;2.23;;;17.70;99.90;;;;;;5092752;28;20204;-84
2022/10/23 09:48:11;;;;;;;5.20;2.67;;;17.80;99.90;;;;;;5092987;28;20205;-83
2022/10/23 09:50:47;;;;;;;2.37;2.17;;;17.80;99.90;;;;;;5092981;28;20266;-84
2022/10/23 09:53:26;;;;;;;2.37;2.17;;;17.90;99.90;;;;;;5088551;28;20594;-83
2022/10/23 09:55:55;;;;;;;5.50;2.13;;;17.90;99.90;;;;;;5072396;28;20205;-83
2022/10/23 09:58:30;;;;;;;4.30;2.20;;;17.90;99.90;;;;;;5072601;28;20201;-84
2022/10/23 10:00:57;;;;;;;5.00;2.50;;;17.80;99.90;;;;;;5072375;28;20209;-82
2022/10/23 10:03:25;;;;;;;6.60;2.70;;;17.90;99.90;;;;;;5072241;28;20633;-85
2022/10/23 10:05:58;;;;;;;7.03;2.75;;;17.90;99.90;;;;;;5072046;28;20439;-85
2022/10/23 10:08:35;;;;;;;4.23;3.00;;;18.20;99.90;;;;;;5075792;28;20190;-85
2022/10/23 10:11:10;;;;;;;4.40;2.50;;;18.10;99.90;;;;;;5076531;28;20225;-85
2022/10/23 10:14:15;;;;;;;5.27;2.30;;;18.20;99.90;;;;;;5076725;28;20696;-85
2022/10/23 10:16:50;;;;;;;4.67;2.70;;;18.30;99.90;;;;;;5070974;28;20205;-85
2022/10/23 10:19:32;;;;;;;8.40;2.80;;;18.20;99.90;;;;;;5076827;28;20208;-84
2022/10/23 10:22:11;;;;;;;6.67;3.80;;;18.20;99.90;;;;;;5076684;28;20201;-86
2022/10/23 10:24:49;;;;;;;12.80;3.20;;;18.20;99.90;;;;;;5076519;28;20210;-87
2022/10/23 10:27:28;;;;;;;5.30;2.93;;;18.30;99.90;;;;;;5079421;28;20194;-87
2022/10/23 10:30:03;;;;;;;5.97;2.83;;;18.50;99.90;;;;;;5077502;28;20197;-89
2022/10/23 10:32:39;;;;;;;6.37;3.60;;;18.30;99.90;;;;;;5076142;28;20232;-85
2022/10/23 10:35:22;;;;;;;7.77;3.10;;;18.40;99.90;;;;;;5081741;28;20209;-86
2022/10/23 10:38:13;;;;;;;4.43;2.83;;;18.40;99.90;;;;;;5095143;28;20200;-85
2022/10/23 10:40:57;;;;;;;6.47;2.87;;;18.50;99.90;;;;;;5084244;28;20197;-86
2022/10/23 10:43:35;;;;;;;7.40;3.40;;;18.60;99.90;;;;;;5088108;28;20528;-86
2022/10/23 10:46:12;;;;;;;5.27;2.70;;;18.60;99.90;;;;;;5082297;28;20277;-86
2022/10/23 10:48:43;;;;;;;6.87;2.90;;;18.60;99.90;;;;;;5087398;28;20680;-86
2022/10/23 10:51:17;;;;;;;5.17;3.03;;;18.70;99.90;;;;;;5095959;28;20235;-85
2022/10/23 10:53:59;;;;;;;4.70;2.90;;;18.70;99.90;;;;;;5095840;28;20540;-84
2022/10/23 10:56:38;;;;;;;8.97;3.13;;;18.90;99.90;;;;;;5096133;28;20201;-85
2022/10/23 10:59:14;;;;;;;4.77;2.80;;;18.90;99.90;;;;;;5095988;28;20220;-83
2022/10/23 11:01:45;;;;;;;3.90;3.07;;;19.00;99.90;;;;;;5089783;28;20197;-85
2022/10/23 11:04:21;;;;;;;5.50;2.90;;;19.00;99.90;;;;;;5080175;28;20210;-85
2022/10/23 11:06:52;;;;;;;5.17;3.10;;;19.00;99.90;;;;;;5087871;28;20202;-88
2022/10/23 11:09:27;;;;;;;10.13;3.50;;;19.20;99.90;;;;;;5076130;28;20237;-87
2022/10/23 11:11:57;;;;;;;9.83;2.80;;;19.20;99.90;;;;;;5078742;28;20217;-88
2022/10/23 11:14:32;;;;;;;4.70;2.90;;;19.30;99.90;;;;;;5089505;28;20220;-88
2022/10/23 11:17:07;;;;;;;3.93;2.73;;;19.20;99.90;;;;;;5075858;28;20225;-88
2022/10/23 11:19:40;;;;;;;4.43;2.80;;;19.20;99.90;;;;;;5075654;28;20194;-89
2022/10/23 11:22:12;;;;;;;4.40;2.70;;;19.20;99.90;;;;;;5082059;28;20286;-90
2022/10/23 11:25:00;;;;;;;6.63;2.53;;;19.50;99.90;;;;;;5096127;28;20194;-87
2022/10/23 11:27:55;;;;;;;5.23;2.60;;;19.50;99.90;;;;;;5094700;28;20212;-88
2022/10/23 11:30:27;;;;;;;7.10;2.97;;;19.60;99.90;;;;;;5095042;28;20208;-87
2022/10/23 11:33:31;;;;;;;6.50;2.83;;;19.60;99.90;;;;;;5095513;28;20237;-86
2022/10/23 11:36:05;;;;;;;5.27;2.90;;;19.70;99.90;;;;;;5087639;28;20199;-88
2022/10/23 11:38:35;;;;;;;6.07;2.77;;;19.90;99.90;;;;;;5090545;28;20192;-87
2022/10/23 11:41:05;;;;;;;10.00;2.33;;;20.00;99.90;;;;;;5090062;28;20577;-90
2022/10/23 11:43:46;;;;;;;5.30;2.87;;;19.90;99.90;;;;;;5083756;28;20276;-84
2022/10/23 11:46:14;;;;;;;7.00;2.50;;;20.00;99.90;;;;;;5091564;28;20212;-87
2022/10/23 11:48:47;;;;;;;5.70;2.30;;;20.00;99.90;;;;;;5091532;28;20209;-88
2022/10/23 11:51:29;;;;;;;6.97;2.60;;;19.90;99.90;;;;;;5094510;28;20645;-88
2022/10/23 11:54:23;;;;;;;5.10;2.33;;;19.80;99.90;;;;;;5088533;28;20205;-87
2022/10/23 11:57:14;;;;;;;3.73;2.23;;;20.10;99.90;;;;;;5093530;28;20373;-88
2022/10/23 11:59:55;;;;;;;4.80;2.40;;;20.10;99.90;;;;;;5070527;28;20205;-87
2022/10/23 12:02:31;;;;;;;5.37;2.40;;;20.20;99.90;;;;;;5075194;28;20194;-88
2022/10/23 12:05:01;;;;;;;3.30;2.50;;;20.50;99.90;;;;;;5082072;28;20212;-89
2022/10/23 12:07:32;;;;;;;3.57;2.27;;;20.30;99.90;;;;;;5085093;28;20649;-88
2022/10/23 12:10:07;;;;;;;7.20;2.70;;;20.20;99.90;;;;;;5080740;28;20501;-88
2022/10/23 12:12:39;;;;;;;3.97;2.30;;;20.40;99.90;;;;;;5095044;28;20246;-88
2022/10/23 12:15:21;;;;;;;8.00;2.60;;;20.10;99.90;;;;;;5092576;28;20197;-88
2022/10/23 12:17:53;;;;;;;3.47;2.30;;;20.20;99.90;;;;;;5095051;28;20640;-88
2022/10/23 12:20:39;;;;;;;4.70;2.10;;;20.50;99.90;;;;;;5094040;28;20274;-86
2022/10/23 12:23:42;;;;;;;5.43;2.17;;;20.50;99.90;;;;;;5091472;28;20209;-88
2022/10/23 12:26:30;;;;;;;5.07;2.27;;;20.70;99.90;;;;;;5064405;28;20197;-86
2022/10/23 12:29:10;;;;;;;3.00;1.87;;;20.90;99.90;;;;;;5094323;28;20201;-87
2022/10/23 12:31:50;;;;;;;5.90;1.73;;;20.90;99.90;;;;;;5092395;28;20190;-89
2022/10/23 12:34:36;;;;;;;7.97;2.00;;;20.90;99.90;;;;;;5093132;28;20675;-87
2022/10/23 12:37:18;;;;;;;7.23;2.43;;;20.80;99.90;;;;;;5086660;28;20215;-84
2022/10/23 12:39:52;;;;;;;2.50;1.80;;;20.90;99.90;;;;;;5094300;28;20201;-86
2022/10/23 12:42:24;;;;;;;4.70;1.77;;;20.80;99.90;;;;;;5088507;28;20650;-85
2022/10/23 12:45:02;;;;;;;4.97;2.07;;;20.90;99.90;;;;;;5075808;28;20206;-87
2022/10/23 12:47:31;;;;;;;6.33;1.93;;;21.00;99.90;;;;;;5094760;28;20197;-86
2022/10/23 12:49:59;;;;;;;6.23;2.17;;;21.00;99.90;;;;;;5086155;28;20206;-86
2022/10/23 12:52:26;;;;;;;4.63;1.73;;;21.10;99.90;;;;;;5074383;28;20229;-85
2022/10/23 12:54:55;;;;;;;5.37;2.10;;;21.20;99.90;;;;;;5080124;28;20181;-87
2022/10/23 12:57:25;;;;;;;3.67;2.07;;;21.30;99.90;;;;;;5084064;28;20206;-86
2022/10/23 12:59:57;;;;;;;5.57;2.00;;;21.40;99.90;;;;;;5075604;28;20617;-84
2022/10/23 13:02:25;;;;;;;3.83;1.93;;;21.30;99.90;;;;;;5088778;28;20208;-87
2022/10/23 13:04:57;;;;;;;2.70;1.70;;;21.40;99.90;;;;;;5089750;28;20216;-87
2022/10/23 13:07:27;;;;;;;4.33;1.97;;;21.40;99.90;;;;;;5073896;28;20530;-86
2022/10/23 13:09:57;;;;;;;2.47;2.10;;;21.50;99.90;;;;;;5075255;28;20196;-88
2022/10/23 13:12:32;;;;;;;7.47;2.17;;;21.60;99.90;;;;;;5094415;28;20213;-87